Time;durP1;ratioP1;P1;durP2;ratioP2;P2;SDS_P1;SDS_P2;PMS_P1;PMS_P2;Temp;Humidity;BMP_temperature;BMP_pressure;BME280_temperature;BME280_humidity;BME280_pressure;Samples;Min_cycle;Max_cycle;Signal;HPM_P1;HPM_P2
2023/12/22 00:00:01;;;;;;;2.37;1.30;;;;;;;;;;5013317;28;20232;-69
2023/12/22 00:02:28;;;;;;;1.43;1.10;;;;;;;;;;5015544;28;20225;-68
2023/12/22 00:04:56;;;;;;;2.00;1.43;;;;;;;;;;5033195;28;20213;-70
2023/12/22 00:07:24;;;;;;;1.73;1.40;;;;;;;;;;5033034;28;20215;-68
2023/12/22 00:09:51;;;;;;;1.33;1.20;;;;;;;;;;5033191;28;20207;-69
2023/12/22 00:12:18;;;;;;;3.90;2.23;;;;;;;;;;5031859;28;20244;-69
2023/12/22 00:14:45;;;;;;;1.93;1.80;;;;;;;;;;5013221;28;20211;-70
2023/12/22 00:17:13;;;;;;;2.90;2.37;;;;;;;;;;5013360;28;20204;-70
2023/12/22 00:19:40;;;;;;;1.47;1.37;;;;;;;;;;5013063;28;20259;-70
2023/12/22 00:22:07;;;;;;;2.00;1.30;;;;;;;;;;5012790;28;20219;-69
2023/12/22 00:24:35;;;;;;;2.70;1.90;;;;;;;;;;5032077;28;20203;-71
2023/12/22 00:27:03;;;;;;;2.70;1.37;;;;;;;;;;5032423;28;20717;-71
2023/12/22 00:29:30;;;;;;;3.13;1.50;;;;;;;;;;5032407;28;20211;-70
2023/12/22 00:31:57;;;;;;;2.50;1.40;;;;;;;;;;5032662;28;20643;-69
2023/12/22 00:34:25;;;;;;;3.47;1.77;;;;;;;;;;5014769;28;20642;-70
2023/12/22 00:36:53;;;;;;;2.73;1.57;;;;;;;;;;5027061;28;20200;-68
2023/12/22 00:39:20;;;;;;;2.77;1.87;;;;;;;;;;5012640;28;20281;-70
2023/12/22 00:41:48;;;;;;;5.10;1.60;;;;;;;;;;5014753;28;20610;-69
2023/12/22 00:44:15;;;;;;;3.00;1.83;;;;;;;;;;5012441;28;20269;-70
2023/12/22 00:46:42;;;;;;;3.70;1.90;;;;;;;;;;5012471;28;20200;-70
2023/12/22 00:49:09;;;;;;;3.80;1.87;;;;;;;;;;5014793;28;20267;-69
2023/12/22 00:51:37;;;;;;;3.10;2.30;;;;;;;;;;5014660;28;20219;-71
2023/12/22 00:54:04;;;;;;;5.50;1.90;;;;;;;;;;5032163;28;20211;-71
2023/12/22 00:56:31;;;;;;;5.70;1.83;;;;;;;;;;5032001;28;20265;-68
2023/12/22 00:58:58;;;;;;;10.23;5.10;;;;;;;;;;5031981;28;20206;-68
2023/12/22 01:01:37;;;;;;;4.47;2.87;;;;;;;;;;5031993;28;20230;-71
2023/12/22 01:04:04;;;;;;;2.87;1.77;;;;;;;;;;5032447;28;20206;-69
2023/12/22 01:06:32;;;;;;;4.33;2.00;;;;;;;;;;5029757;28;20207;-70
2023/12/22 01:09:00;;;;;;;6.63;1.70;;;;;;;;;;5012205;28;20250;-70
2023/12/22 01:11:27;;;;;;;4.50;1.80;;;;;;;;;;5011845;28;20585;-72
2023/12/22 01:13:56;;;;;;;6.07;2.20;;;;;;;;;;5008360;28;20208;-70
2023/12/22 01:16:23;;;;;;;12.77;4.40;;;;;;;;;;5012006;28;20257;-70
2023/12/22 01:18:51;;;;;;;7.33;3.03;;;;;;;;;;5019833;28;20214;-70
2023/12/22 01:21:18;;;;;;;9.00;2.97;;;;;;;;;;5031861;28;20222;-68
2023/12/22 01:23:46;;;;;;;6.70;2.23;;;;;;;;;;5031281;28;20245;-69
2023/12/22 01:26:13;;;;;;;6.30;2.80;;;;;;;;;;5031747;28;20786;-69
2023/12/22 01:28:41;;;;;;;5.50;2.00;;;;;;;;;;5031511;28;20203;-70
2023/12/22 01:31:08;;;;;;;7.57;3.77;;;;;;;;;;5031256;28;20765;-68
2023/12/22 01:33:35;;;;;;;3.30;2.10;;;;;;;;;;5031548;28;20218;-69
2023/12/22 01:36:04;;;;;;;22.50;10.00;;;;;;;;;;4997349;28;20202;-69
2023/12/22 01:38:31;;;;;;;3.90;1.67;;;;;;;;;;5031547;28;20265;-69
2023/12/22 01:40:58;;;;;;;4.87;2.33;;;;;;;;;;5031099;28;20234;-68
2023/12/22 01:43:26;;;;;;;3.20;1.83;;;;;;;;;;5031229;28;20336;-68
2023/12/22 01:45:56;;;;;;;3.47;1.90;;;;;;;;;;5031644;28;20222;-67
2023/12/22 01:48:24;;;;;;;8.73;3.97;;;;;;;;;;5013928;28;20202;-68
2023/12/22 01:50:52;;;;;;;4.00;1.70;;;;;;;;;;5031101;28;20758;-70
2023/12/22 01:53:24;;;;;;;1.40;1.30;;;;;;;;;;5031479;28;20207;-69
2023/12/22 01:55:52;;;;;;;3.27;2.30;;;;;;;;;;5031387;28;20670;-69
2023/12/22 01:58:20;;;;;;;5.50;1.50;;;;;;;;;;5013913;28;20724;-68
2023/12/22 02:00:47;;;;;;;2.80;1.40;;;;;;;;;;5017125;28;20325;-70
2023/12/22 02:03:15;;;;;;;1.47;1.30;;;;;;;;;;5035643;28;20257;-70
2023/12/22 02:05:43;;;;;;;4.10;1.50;;;;;;;;;;5017765;28;20208;-69
2023/12/22 02:08:11;;;;;;;1.93;1.47;;;;;;;;;;5034867;28;20241;-70
2023/12/22 02:10:38;;;;;;;4.77;1.50;;;;;;;;;;5034925;28;20210;-70
2023/12/22 02:13:05;;;;;;;9.37;5.13;;;;;;;;;;5035010;28;20289;-69
2023/12/22 02:15:33;;;;;;;3.70;2.23;;;;;;;;;;5035238;28;20646;-69
2023/12/22 02:18:03;;;;;;;1.73;1.60;;;;;;;;;;5035060;28;20666;-69
2023/12/22 02:20:32;;;;;;;1.07;1.03;;;;;;;;;;5017432;28;20211;-68
2023/12/22 02:22:59;;;;;;;2.43;2.03;;;;;;;;;;5034526;28;20254;-70
2023/12/22 02:25:26;;;;;;;2.40;1.57;;;;;;;;;;5034750;28;20202;-70
2023/12/22 02:27:56;;;;;;;3.20;2.37;;;;;;;;;;5034402;28;20203;-69
2023/12/22 02:30:23;;;;;;;1.03;1.03;;;;;;;;;;5034398;28;20230;-68
2023/12/22 02:32:52;;;;;;;1.00;0.90;;;;;;;;;;5034245;28;20264;-69
2023/12/22 02:35:24;;;;;;;1.93;1.27;;;;;;;;;;5034455;28;20230;-71
2023/12/22 02:37:51;;;;;;;2.50;1.50;;;;;;;;;;5034642;28;20580;-70
2023/12/22 02:40:20;;;;;;;1.50;1.30;;;;;;;;;;5033485;28;20227;-71
2023/12/22 02:42:47;;;;;;;3.47;1.90;;;;;;;;;;5034064;28;20227;-71
2023/12/22 02:45:16;;;;;;;3.97;1.93;;;;;;;;;;5034180;28;20205;-68
2023/12/22 02:47:43;;;;;;;2.53;1.30;;;;;;;;;;5034294;28;20234;-69
2023/12/22 02:50:11;;;;;;;3.53;1.90;;;;;;;;;;5034427;28;20221;-71
2023/12/22 02:52:38;;;;;;;2.47;1.70;;;;;;;;;;5033969;28;20227;-68
2023/12/22 02:55:06;;;;;;;3.70;1.50;;;;;;;;;;5034185;28;20693;-68
2023/12/22 02:57:33;;;;;;;3.63;1.50;;;;;;;;;;5016417;28;20261;-71
2023/12/22 03:00:00;;;;;;;3.53;1.70;;;;;;;;;;5034207;28;20227;-68
2023/12/22 03:02:28;;;;;;;1.87;1.20;;;;;;;;;;5034078;28;20225;-70
2023/12/22 03:04:55;;;;;;;2.87;1.60;;;;;;;;;;5012530;28;20196;-70
2023/12/22 03:07:22;;;;;;;3.83;1.43;;;;;;;;;;5014036;28;20299;-70
2023/12/22 03:09:51;;;;;;;1.53;1.43;;;;;;;;;;5014152;28;20203;-70
2023/12/22 03:12:18;;;;;;;3.77;1.70;;;;;;;;;;5012764;28;20238;-69
2023/12/22 03:14:46;;;;;;;1.87;1.40;;;;;;;;;;5014159;28;20212;-71
2023/12/22 03:17:14;;;;;;;2.07;1.53;;;;;;;;;;5013805;28;20204;-69
2023/12/22 03:19:41;;;;;;;5.83;1.73;;;;;;;;;;5013570;28;20224;-70
2023/12/22 03:22:09;;;;;;;4.13;1.60;;;;;;;;;;5027368;28;20230;-69
2023/12/22 03:24:37;;;;;;;3.50;1.10;;;;;;;;;;5033506;28;20233;-72
2023/12/22 03:27:04;;;;;;;4.60;1.40;;;;;;;;;;5033371;28;20207;-70
2023/12/22 03:29:31;;;;;;;1.53;1.20;;;;;;;;;;5033652;28;20265;-68
2023/12/22 03:31:59;;;;;;;3.30;1.27;;;;;;;;;;5033057;28;20223;-70
2023/12/22 03:34:26;;;;;;;3.97;1.57;;;;;;;;;;5015629;28;20270;-69
2023/12/22 03:36:53;;;;;;;3.23;1.43;;;;;;;;;;5033325;28;20238;-69
2023/12/22 03:39:21;;;;;;;1.17;1.07;;;;;;;;;;5033042;28;20210;-69
2023/12/22 03:41:48;;;;;;;1.17;1.00;;;;;;;;;;5026332;28;20235;-71
2023/12/22 03:44:16;;;;;;;2.63;1.30;;;;;;;;;;5023528;28;20203;-72
2023/12/22 03:46:43;;;;;;;1.53;1.00;;;;;;;;;;5018309;28;20200;-71
2023/12/22 03:49:11;;;;;;;2.30;1.00;;;;;;;;;;5022936;28;20681;-70
2023/12/22 03:51:38;;;;;;;1.20;1.10;;;;;;;;;;5019067;28;20234;-70
2023/12/22 03:54:05;;;;;;;1.53;1.00;;;;;;;;;;4986943;28;23833;-72
2023/12/22 03:56:32;;;;;;;1.07;1.00;;;;;;;;;;5016206;28;20651;-71
2023/12/22 03:58:59;;;;;;;1.63;1.10;;;;;;;;;;5026104;28;20210;-71
2023/12/22 04:01:27;;;;;;;5.60;1.37;;;;;;;;;;5019495;28;21379;-70
2023/12/22 04:03:54;;;;;;;3.77;1.40;;;;;;;;;;5022296;28;20206;-71
2023/12/22 04:06:21;;;;;;;2.87;1.73;;;;;;;;;;5025299;28;20203;-71
2023/12/22 04:08:48;;;;;;;3.07;1.53;;;;;;;;;;5020424;28;20203;-72
2023/12/22 04:11:16;;;;;;;2.10;1.30;;;;;;;;;;5025048;28;20223;-71
2023/12/22 04:13:43;;;;;;;4.43;2.00;;;;;;;;;;5019443;28;20635;-72
2023/12/22 04:16:10;;;;;;;4.30;1.70;;;;;;;;;;4995276;28;20249;-72
2023/12/22 04:18:37;;;;;;;3.70;1.57;;;;;;;;;;5013408;28;20633;-73
2023/12/22 04:21:05;;;;;;;7.43;1.83;;;;;;;;;;5022940;28;20815;-72
2023/12/22 04:23:33;;;;;;;5.83;2.10;;;;;;;;;;5015021;28;20261;-72
2023/12/22 04:26:02;;;;;;;4.53;1.47;;;;;;;;;;5014910;28;20292;-72
2023/12/22 04:28:29;;;;;;;3.30;1.77;;;;;;;;;;5018418;28;20580;-71
2023/12/22 04:30:56;;;;;;;3.90;1.73;;;;;;;;;;5004937;28;20227;-70
2023/12/22 04:33:24;;;;;;;4.47;1.80;;;;;;;;;;5015889;28;20210;-72
2023/12/22 04:35:51;;;;;;;5.90;1.97;;;;;;;;;;5015560;28;20314;-71
2023/12/22 04:38:18;;;;;;;9.73;2.37;;;;;;;;;;5024651;28;20701;-72
2023/12/22 04:40:46;;;;;;;3.43;1.43;;;;;;;;;;5001564;28;20231;-72
2023/12/22 04:43:13;;;;;;;4.70;3.37;;;;;;;;;;5010658;28;20199;-71
2023/12/22 04:45:40;;;;;;;6.47;5.87;;;;;;;;;;5013512;28;20615;-72
2023/12/22 04:48:08;;;;;;;6.03;2.00;;;;;;;;;;5010003;28;20222;-70
2023/12/22 04:50:35;;;;;;;1.93;1.80;;;;;;;;;;5017292;28;20569;-72
2023/12/22 04:53:02;;;;;;;4.40;1.50;;;;;;;;;;5015617;28;20199;-71
2023/12/22 04:55:30;;;;;;;1.63;1.10;;;;;;;;;;5011189;28;20651;-71
2023/12/22 04:57:57;;;;;;;3.90;1.37;;;;;;;;;;5016596;28;20222;-72
2023/12/22 05:00:26;;;;;;;2.10;1.50;;;;;;;;;;5016046;28;20214;-71
2023/12/22 05:02:53;;;;;;;2.17;1.50;;;;;;;;;;4995331;28;20295;-71
2023/12/22 05:05:20;;;;;;;5.43;1.53;;;;;;;;;;5001978;28;20561;-72
2023/12/22 05:07:49;;;;;;;2.23;1.63;;;;;;;;;;5009706;28;20202;-73
2023/12/22 05:10:16;;;;;;;2.43;1.47;;;;;;;;;;5010420;28;20215;-74
2023/12/22 05:12:43;;;;;;;3.23;1.60;;;;;;;;;;5000686;28;20313;-74
2023/12/22 05:15:11;;;;;;;3.37;1.70;;;;;;;;;;5002843;28;20269;-73
2023/12/22 05:17:40;;;;;;;5.23;2.93;;;;;;;;;;4989386;28;20265;-72
2023/12/22 05:20:14;;;;;;;7.83;2.17;;;;;;;;;;5013246;28;20598;-71
2023/12/22 05:22:45;;;;;;;5.57;1.90;;;;;;;;;;5018825;28;20729;-71
2023/12/22 05:25:16;;;;;;;3.73;1.87;;;;;;;;;;5016136;28;20235;-73
2023/12/22 05:27:44;;;;;;;5.90;2.20;;;;;;;;;;5016188;28;20227;-73
2023/12/22 05:30:14;;;;;;;9.87;2.30;;;;;;;;;;5016106;28;20227;-72
2023/12/22 05:32:43;;;;;;;8.07;2.07;;;;;;;;;;4999013;28;20226;-72
2023/12/22 05:35:12;;;;;;;4.83;1.93;;;;;;;;;;5020157;28;20213;-70
2023/12/22 05:37:40;;;;;;;8.07;2.33;;;;;;;;;;5016781;28;20286;-72
2023/12/22 05:40:07;;;;;;;6.13;2.27;;;;;;;;;;5016638;28;20568;-72
2023/12/22 05:42:35;;;;;;;10.57;2.27;;;;;;;;;;5013687;28;20219;-72
2023/12/22 05:45:03;;;;;;;5.83;2.43;;;;;;;;;;5018040;28;20202;-73
2023/12/22 05:47:32;;;;;;;7.13;2.33;;;;;;;;;;5019709;28;20218;-71
2023/12/22 05:50:00;;;;;;;4.50;2.17;;;;;;;;;;5012896;28;20225;-72
2023/12/22 05:52:28;;;;;;;8.63;2.97;;;;;;;;;;5009089;28;20223;-71
2023/12/22 05:54:56;;;;;;;8.37;2.10;;;;;;;;;;5012758;28;20242;-71
2023/12/22 05:57:25;;;;;;;8.27;2.80;;;;;;;;;;5011819;28;20206;-73
2023/12/22 05:59:53;;;;;;;10.23;2.43;;;;;;;;;;5010262;28;20231;-71
2023/12/22 06:02:21;;;;;;;7.10;2.30;;;;;;;;;;5017798;28;20723;-70
2023/12/22 06:04:48;;;;;;;6.73;3.03;;;;;;;;;;5012003;28;20596;-72
2023/12/22 06:07:16;;;;;;;9.23;2.20;;;;;;;;;;5011865;28;20208;-72
2023/12/22 06:09:43;;;;;;;11.13;2.60;;;;;;;;;;5013534;28;20195;-72
2023/12/22 06:12:10;;;;;;;4.57;1.93;;;;;;;;;;5013105;28;20261;-72
2023/12/22 06:14:40;;;;;;;9.27;2.70;;;;;;;;;;5012883;28;20272;-73
2023/12/22 06:17:08;;;;;;;7.47;1.90;;;;;;;;;;5004955;28;20227;-71
2023/12/22 06:19:38;;;;;;;7.10;2.00;;;;;;;;;;5008557;28;20209;-71
2023/12/22 06:22:05;;;;;;;5.23;2.20;;;;;;;;;;4991391;28;20683;-72
2023/12/22 06:24:35;;;;;;;5.97;1.77;;;;;;;;;;5016450;28;20207;-72
2023/12/22 06:27:03;;;;;;;6.90;1.90;;;;;;;;;;5015611;28;20230;-72
2023/12/22 06:29:31;;;;;;;3.60;1.80;;;;;;;;;;5009347;28;20211;-72
2023/12/22 06:32:00;;;;;;;5.10;1.83;;;;;;;;;;4985292;28;20251;-71
2023/12/22 06:34:27;;;;;;;7.53;2.00;;;;;;;;;;5018952;28;20208;-70
2023/12/22 06:36:55;;;;;;;5.87;1.90;;;;;;;;;;5022234;28;20234;-72
2023/12/22 06:39:22;;;;;;;8.73;2.20;;;;;;;;;;5013586;28;20211;-73
2023/12/22 06:41:51;;;;;;;5.90;1.83;;;;;;;;;;5001917;28;20222;-72
2023/12/22 06:44:18;;;;;;;4.57;2.00;;;;;;;;;;5011511;28;20207;-71
2023/12/22 06:46:46;;;;;;;5.73;2.00;;;;;;;;;;5030533;28;20777;-71
2023/12/22 06:49:18;;;;;;;4.87;1.77;;;;;;;;;;5024938;28;20254;-71
2023/12/22 06:51:46;;;;;;;6.77;1.80;;;;;;;;;;5023275;28;20227;-71
2023/12/22 06:54:13;;;;;;;3.70;1.90;;;;;;;;;;5012069;28;20214;-71
2023/12/22 06:56:43;;;;;;;10.10;2.03;;;;;;;;;;5025328;28;20686;-69
2023/12/22 06:59:11;;;;;;;5.90;2.00;;;;;;;;;;5024073;28;20282;-70
2023/12/22 07:01:41;;;;;;;5.00;2.00;;;;;;;;;;5023939;28;20325;-71
2023/12/22 07:04:22;;;;;;;7.27;1.80;;;;;;;;;;5026403;28;20249;-70
2023/12/22 07:06:49;;;;;;;6.50;2.73;;;;;;;;;;5026719;28;20199;-69
2023/12/22 07:09:18;;;;;;;7.67;2.33;;;;;;;;;;5035697;28;20195;-70
2023/12/22 07:11:55;;;;;;;7.20;2.23;;;;;;;;;;5024317;28;20281;-71
2023/12/22 07:14:24;;;;;;;8.67;2.63;;;;;;;;;;5023768;28;20191;-69
2023/12/22 07:16:51;;;;;;;5.77;2.23;;;;;;;;;;5025614;28;20199;-69
2023/12/22 07:19:20;;;;;;;8.73;2.77;;;;;;;;;;5027812;28;20237;-72
2023/12/22 07:21:49;;;;;;;6.97;1.97;;;;;;;;;;5005448;28;20727;-72
2023/12/22 07:24:17;;;;;;;5.73;2.40;;;;;;;;;;5028046;28;20246;-69
2023/12/22 07:26:45;;;;;;;6.50;2.27;;;;;;;;;;5030016;28;20663;-72
2023/12/22 07:29:13;;;;;;;6.93;2.37;;;;;;;;;;5027082;28;20203;-70
2023/12/22 07:31:40;;;;;;;6.73;2.87;;;;;;;;;;4997393;28;20239;-70
2023/12/22 07:34:08;;;;;;;6.57;1.90;;;;;;;;;;5022623;28;20211;-71
2023/12/22 07:36:36;;;;;;;8.23;2.30;;;;;;;;;;5026043;28;20211;-71
2023/12/22 07:39:15;;;;;;;11.77;2.40;;;;;;;;;;5021911;28;20230;-70
2023/12/22 07:41:44;;;;;;;7.13;2.20;;;;;;;;;;5024009;28;20223;-72
2023/12/22 07:44:12;;;;;;;5.97;2.27;;;;;;;;;;5027459;28;20222;-72
2023/12/22 07:46:40;;;;;;;10.20;2.60;;;;;;;;;;5025851;28;20206;-71
2023/12/22 07:49:10;;;;;;;5.50;2.50;;;;;;;;;;5020349;28;20207;-71
2023/12/22 07:51:38;;;;;;;7.53;2.17;;;;;;;;;;4999191;28;20220;-72
2023/12/22 07:54:07;;;;;;;11.03;2.90;;;;;;;;;;5025384;28;20216;-71
2023/12/22 07:56:35;;;;;;;6.80;2.33;;;;;;;;;;5021702;28;20226;-73
2023/12/22 07:59:03;;;;;;;10.53;2.30;;;;;;;;;;5002562;28;20210;-70
2023/12/22 08:01:49;;;;;;;9.67;2.60;;;;;;;;;;5016830;28;20226;-69
2023/12/22 08:04:18;;;;;;;8.93;2.70;;;;;;;;;;5005135;28;20221;-70
2023/12/22 08:06:46;;;;;;;8.47;2.57;;;;;;;;;;5013273;28;20242;-71
2023/12/22 08:09:14;;;;;;;5.17;1.97;;;;;;;;;;4997690;28;20313;-72
2023/12/22 08:11:41;;;;;;;5.80;1.90;;;;;;;;;;5016841;28;20231;-72
2023/12/22 08:14:08;;;;;;;8.00;2.23;;;;;;;;;;5011774;28;20219;-71
2023/12/22 08:16:35;;;;;;;3.67;1.83;;;;;;;;;;5003907;28;20472;-72
2023/12/22 08:19:03;;;;;;;6.90;2.23;;;;;;;;;;5007804;28;20203;-70
2023/12/22 08:21:30;;;;;;;4.47;2.67;;;;;;;;;;5010762;28;20239;-72
2023/12/22 08:24:11;;;;;;;3.23;1.90;;;;;;;;;;5003999;28;20290;-71
2023/12/22 08:26:48;;;;;;;8.87;2.20;;;;;;;;;;5006614;28;20204;-72
2023/12/22 08:29:16;;;;;;;5.90;2.13;;;;;;;;;;5013054;28;20215;-72
2023/12/22 08:31:43;;;;;;;9.00;2.07;;;;;;;;;;5015270;28;20226;-75
2023/12/22 08:34:13;;;;;;;8.27;2.47;;;;;;;;;;4997810;28;20211;-70
2023/12/22 08:36:43;;;;;;;7.70;2.43;;;;;;;;;;5009869;28;20207;-73
2023/12/22 08:39:12;;;;;;;10.13;2.57;;;;;;;;;;4995446;28;20249;-75
2023/12/22 08:41:47;;;;;;;10.03;3.00;;;;;;;;;;5007685;28;20231;-74
2023/12/22 08:44:20;;;;;;;7.53;2.10;;;;;;;;;;5010380;28;20203;-73
2023/12/22 08:46:48;;;;;;;8.80;2.27;;;;;;;;;;5001831;28;20929;-71
2023/12/22 08:49:15;;;;;;;7.67;2.23;;;;;;;;;;4999897;28;20211;-72
2023/12/22 08:51:42;;;;;;;6.27;2.17;;;;;;;;;;5003168;28;20255;-74
2023/12/22 08:54:10;;;;;;;8.57;1.80;;;;;;;;;;5006112;28;20207;-74
2023/12/22 08:56:38;;;;;;;6.53;2.00;;;;;;;;;;4991783;28;20218;-74
2023/12/22 08:59:05;;;;;;;4.33;1.50;;;;;;;;;;4986040;28;20671;-75
2023/12/22 09:01:32;;;;;;;6.80;1.83;;;;;;;;;;5004601;28;20317;-73
2023/12/22 09:04:01;;;;;;;7.13;1.80;;;;;;;;;;5001591;28;20211;-74
2023/12/22 09:06:29;;;;;;;3.90;1.73;;;;;;;;;;4996227;28;20203;-76
2023/12/22 09:08:57;;;;;;;6.33;2.10;;;;;;;;;;5004655;28;20638;-75
2023/12/22 09:11:25;;;;;;;3.90;2.03;;;;;;;;;;5011602;28;20231;-74
2023/12/22 09:13:52;;;;;;;5.63;1.80;;;;;;;;;;5008516;28;20702;-72
2023/12/22 09:16:24;;;;;;;5.07;1.70;;;;;;;;;;5006527;28;20290;-74
2023/12/22 09:18:52;;;;;;;5.97;2.00;;;;;;;;;;5006702;28;20207;-74
2023/12/22 09:21:20;;;;;;;7.30;2.43;;;;;;;;;;5003068;28;20230;-74
2023/12/22 09:23:47;;;;;;;3.83;1.63;;;;;;;;;;5011270;28;20245;-74
2023/12/22 09:26:16;;;;;;;4.63;1.50;;;;;;;;;;5007063;28;20355;-73
2023/12/22 09:28:44;;;;;;;3.27;1.53;;;;;;;;;;5009464;28;20207;-74
2023/12/22 09:31:15;;;;;;;3.90;1.90;;;;;;;;;;4997712;28;20746;-75
2023/12/22 09:33:43;;;;;;;4.77;1.40;;;;;;;;;;5000677;28;20199;-75
2023/12/22 09:36:11;;;;;;;5.47;1.87;;;;;;;;;;4982994;28;20218;-74
2023/12/22 09:38:41;;;;;;;4.83;1.90;;;;;;;;;;5004032;28;20203;-75
2023/12/22 09:41:10;;;;;;;8.33;2.13;;;;;;;;;;5002512;28;20254;-76
2023/12/22 09:43:38;;;;;;;3.03;1.27;;;;;;;;;;5004555;28;20206;-73
2023/12/22 09:46:07;;;;;;;6.00;1.70;;;;;;;;;;5004243;28;20214;-72
2023/12/22 09:48:39;;;;;;;4.60;1.70;;;;;;;;;;5008064;28;20559;-70
2023/12/22 09:51:08;;;;;;;5.70;1.67;;;;;;;;;;5007561;28;20730;-71
2023/12/22 09:53:39;;;;;;;3.50;1.60;;;;;;;;;;5021825;28;20289;-69
2023/12/22 09:56:08;;;;;;;5.47;2.30;;;;;;;;;;5030967;28;20187;-70
2023/12/22 09:58:37;;;;;;;3.20;1.63;;;;;;;;;;5017895;28;20653;-72
2023/12/22 10:01:06;;;;;;;6.80;1.70;;;;;;;;;;5013276;28;20294;-70
2023/12/22 10:03:38;;;;;;;3.30;1.50;;;;;;;;;;5032303;28;20211;-71
2023/12/22 10:06:08;;;;;;;2.63;1.50;;;;;;;;;;5032228;28;20187;-71
2023/12/22 10:08:36;;;;;;;3.60;1.70;;;;;;;;;;5030213;28;20291;-70
2023/12/22 10:11:04;;;;;;;4.83;1.73;;;;;;;;;;5013677;28;20552;-72
2023/12/22 10:13:34;;;;;;;3.37;1.77;;;;;;;;;;5011441;28;20199;-70
2023/12/22 10:16:02;;;;;;;2.67;1.80;;;;;;;;;;5011368;28;20559;-68
2023/12/22 10:18:32;;;;;;;4.07;1.97;;;;;;;;;;5011292;28;20204;-69
2023/12/22 10:21:01;;;;;;;8.83;1.93;;;;;;;;;;5029517;28;20223;-69
2023/12/22 10:23:28;;;;;;;4.10;1.70;;;;;;;;;;5034585;28;20223;-69
2023/12/22 10:25:58;;;;;;;6.23;1.90;;;;;;;;;;5029000;28;20664;-69
2023/12/22 10:28:28;;;;;;;6.17;2.13;;;;;;;;;;5015432;28;20513;-69
2023/12/22 10:31:03;;;;;;;3.00;1.80;;;;;;;;;;5015158;28;20228;-69
2023/12/22 10:33:34;;;;;;;5.57;2.00;;;;;;;;;;5027545;28;20249;-71
2023/12/22 10:36:02;;;;;;;3.43;1.60;;;;;;;;;;5034788;28;20211;-71
2023/12/22 10:38:35;;;;;;;6.73;2.20;;;;;;;;;;5038844;28;20214;-69
2023/12/22 10:41:03;;;;;;;7.10;2.10;;;;;;;;;;5034150;28;20234;-71
2023/12/22 10:43:31;;;;;;;9.10;2.33;;;;;;;;;;5034386;28;20231;-71
2023/12/22 10:45:59;;;;;;;4.97;2.17;;;;;;;;;;5034783;28;20666;-70
2023/12/22 10:48:29;;;;;;;6.97;2.43;;;;;;;;;;5034118;28;20210;-71
2023/12/22 10:50:58;;;;;;;8.83;2.90;;;;;;;;;;5034149;28;20229;-70
2023/12/22 10:53:29;;;;;;;6.80;3.23;;;;;;;;;;5034243;28;20195;-70
2023/12/22 10:55:57;;;;;;;7.37;2.37;;;;;;;;;;5033172;28;20206;-71
2023/12/22 10:58:25;;;;;;;10.80;2.70;;;;;;;;;;5034000;28;20268;-69
2023/12/22 11:00:53;;;;;;;6.27;2.30;;;;;;;;;;5019192;28;20736;-71
2023/12/22 11:03:26;;;;;;;7.80;2.57;;;;;;;;;;5015187;28;20249;-71
2023/12/22 11:05:55;;;;;;;6.13;2.20;;;;;;;;;;5014351;28;20198;-72
2023/12/22 11:08:23;;;;;;;5.47;2.47;;;;;;;;;;5030030;28;20635;-69
2023/12/22 11:10:53;;;;;;;5.93;2.10;;;;;;;;;;5034221;28;20470;-69
2023/12/22 11:13:21;;;;;;;4.97;1.90;;;;;;;;;;5033593;28;20226;-70
2023/12/22 11:15:49;;;;;;;3.57;2.10;;;;;;;;;;5021265;28;20222;-71
2023/12/22 11:18:18;;;;;;;7.33;2.53;;;;;;;;;;5002168;28;20207;-72
2023/12/22 11:20:48;;;;;;;11.27;2.07;;;;;;;;;;4996414;28;20222;-72
2023/12/22 11:23:18;;;;;;;8.57;2.63;;;;;;;;;;4991620;28;20361;-71
2023/12/22 11:25:47;;;;;;;5.77;1.90;;;;;;;;;;5005032;28;20218;-71
2023/12/22 11:28:15;;;;;;;4.37;1.53;;;;;;;;;;5009932;28;20629;-71
2023/12/22 11:30:44;;;;;;;9.83;2.10;;;;;;;;;;4993252;28;21186;-73
2023/12/22 11:33:17;;;;;;;3.97;1.90;;;;;;;;;;4991058;28;20219;-72
2023/12/22 11:35:47;;;;;;;6.57;2.00;;;;;;;;;;5005420;28;20258;-73
2023/12/22 11:38:14;;;;;;;3.63;1.83;;;;;;;;;;5003508;28;20211;-71
2023/12/22 11:40:42;;;;;;;3.47;1.60;;;;;;;;;;5006915;28;20211;-71
2023/12/22 11:43:10;;;;;;;2.17;1.27;;;;;;;;;;5006506;28;20270;-71
2023/12/22 11:45:38;;;;;;;2.67;1.90;;;;;;;;;;5013065;28;20223;-72
2023/12/22 11:48:13;;;;;;;1.43;1.10;;;;;;;;;;4998743;28;20199;-72
2023/12/22 11:50:49;;;;;;;4.47;1.50;;;;;;;;;;5004396;28;20693;-72
2023/12/22 11:53:27;;;;;;;1.17;1.00;;;;;;;;;;5015910;28;20582;-71
2023/12/22 11:56:09;;;;;;;1.00;1.00;;;;;;;;;;5015990;28;20253;-72
2023/12/22 11:58:43;;;;;;;1.17;0.83;;;;;;;;;;5014669;28;20260;-71
2023/12/22 12:01:19;;;;;;;2.87;1.47;;;;;;;;;;5016239;28;20235;-72
2023/12/22 12:03:52;;;;;;;1.33;1.10;;;;;;;;;;5015389;28;20720;-71
2023/12/22 12:06:31;;;;;;;1.40;1.30;;;;;;;;;;5021142;28;20650;-71
2023/12/22 12:09:02;;;;;;;0.90;0.90;;;;;;;;;;5013325;28;20208;-72
2023/12/22 12:11:51;;;;;;;2.73;1.30;;;;;;;;;;5022903;23;20203;-78
2023/12/22 12:14:44;;;;;;;1.33;1.07;;;;;;;;;;4991172;28;20211;-77
2023/12/22 12:17:12;;;;;;;1.00;1.00;;;;;;;;;;4981126;28;20208;-77
2023/12/22 12:19:41;;;;;;;1.43;0.97;;;;;;;;;;5002515;28;20290;-76
2023/12/22 12:22:15;;;;;;;1.10;1.00;;;;;;;;;;5000637;28;20262;-76
2023/12/22 12:24:42;;;;;;;3.17;1.00;;;;;;;;;;5003955;28;20606;-78
2023/12/22 12:27:10;;;;;;;4.10;1.27;;;;;;;;;;4999893;28;20207;-77
2023/12/22 12:29:39;;;;;;;1.20;1.10;;;;;;;;;;5001714;28;20291;-78
2023/12/22 12:32:06;;;;;;;1.87;0.70;;;;;;;;;;4997858;28;20230;-78
2023/12/22 12:34:34;;;;;;;1.60;1.00;;;;;;;;;;5000713;28;20203;-78
2023/12/22 12:37:03;;;;;;;0.90;0.90;;;;;;;;;;4991224;28;20204;-76
2023/12/22 12:39:32;;;;;;;3.53;0.90;;;;;;;;;;4980006;28;20469;-77
2023/12/22 12:42:15;;;;;;;1.53;1.00;;;;;;;;;;4999686;28;20227;-76
2023/12/22 12:44:43;;;;;;;1.20;0.90;;;;;;;;;;5000376;28;20204;-76
2023/12/22 12:47:13;;;;;;;1.50;0.80;;;;;;;;;;5001135;28;20684;-77
2023/12/22 12:49:41;;;;;;;1.80;1.00;;;;;;;;;;5006312;28;20270;-77
2023/12/22 12:52:12;;;;;;;0.90;0.90;;;;;;;;;;5001478;28;20230;-79
2023/12/22 12:54:39;;;;;;;1.00;0.90;;;;;;;;;;5004325;28;20203;-77
2023/12/22 12:57:07;;;;;;;1.63;0.90;;;;;;;;;;5004135;28;20211;-78
2023/12/22 12:59:34;;;;;;;1.30;1.00;;;;;;;;;;5003091;28;20327;-77
2023/12/22 13:02:01;;;;;;;1.70;1.00;;;;;;;;;;4998819;28;20223;-78
2023/12/22 13:04:38;;;;;;;0.80;0.80;;;;;;;;;;5001101;28;20200;-77
2023/12/22 13:07:15;;;;;;;1.20;1.00;;;;;;;;;;4987788;28;20252;-77
2023/12/22 13:09:42;;;;;;;0.90;0.90;;;;;;;;;;5005281;28;20249;-77
2023/12/22 13:12:09;;;;;;;1.13;0.60;;;;;;;;;;4997621;28;20287;-77
2023/12/22 13:14:37;;;;;;;0.83;0.83;;;;;;;;;;5003088;28;20200;-76
2023/12/22 13:17:04;;;;;;;0.80;0.80;;;;;;;;;;4991936;28;20613;-77
2023/12/22 13:19:32;;;;;;;0.70;0.70;;;;;;;;;;5001517;28;20215;-77
2023/12/22 13:22:00;;;;;;;0.80;0.80;;;;;;;;;;5002966;28;20900;-78
2023/12/22 13:24:28;;;;;;;0.70;0.70;;;;;;;;;;5001019;28;20208;-77
2023/12/22 13:27:16;;;;;;;0.80;0.80;;;;;;;;;;5000188;28;20261;-77
2023/12/22 13:29:45;;;;;;;0.60;0.60;;;;;;;;;;4998804;28;20254;-79
2023/12/22 13:32:20;;;;;;;0.70;0.70;;;;;;;;;;4998974;28;20781;-78
2023/12/22 13:34:48;;;;;;;0.70;0.70;;;;;;;;;;5002805;28;20210;-78
2023/12/22 13:37:16;;;;;;;0.70;0.70;;;;;;;;;;5003472;28;20713;-77
2023/12/22 13:39:43;;;;;;;0.73;0.70;;;;;;;;;;4995370;28;20288;-78
2023/12/22 13:42:15;;;;;;;0.70;0.70;;;;;;;;;;4984041;28;20319;-78
2023/12/22 13:44:46;;;;;;;0.60;0.60;;;;;;;;;;4996768;28;20544;-78
2023/12/22 13:47:15;;;;;;;0.87;0.87;;;;;;;;;;5003395;28;20479;-77
2023/12/22 13:49:43;;;;;;;0.63;0.63;;;;;;;;;;4993924;28;20207;-77
2023/12/22 13:52:27;;;;;;;0.70;0.70;;;;;;;;;;4996773;28;20699;-78
2023/12/22 13:54:56;;;;;;;0.80;0.80;;;;;;;;;;4997456;28;20203;-77
2023/12/22 13:57:24;;;;;;;0.70;0.70;;;;;;;;;;5002698;28;20212;-77
2023/12/22 13:59:53;;;;;;;0.83;0.70;;;;;;;;;;5002562;28;20231;-77
2023/12/22 14:02:21;;;;;;;0.73;0.70;;;;;;;;;;5000188;28;20690;-75
2023/12/22 14:04:50;;;;;;;0.80;0.80;;;;;;;;;;4996764;28;20203;-78
2023/12/22 14:07:19;;;;;;;0.97;0.90;;;;;;;;;;4996756;28;20209;-77
2023/12/22 14:09:46;;;;;;;1.00;1.00;;;;;;;;;;5000786;28;20218;-76
2023/12/22 14:12:13;;;;;;;0.70;0.70;;;;;;;;;;4997180;28;20227;-76
2023/12/22 14:14:50;;;;;;;0.87;0.83;;;;;;;;;;5001672;28;20307;-77
2023/12/22 14:17:19;;;;;;;0.67;0.67;;;;;;;;;;5002338;28;20675;-78
2023/12/22 14:19:48;;;;;;;0.70;0.70;;;;;;;;;;5002790;28;20253;-76
2023/12/22 14:22:16;;;;;;;1.33;0.80;;;;;;;;;;4987858;28;20220;-77
2023/12/22 14:24:44;;;;;;;0.67;0.67;;;;;;;;;;5002408;28;20199;-75
2023/12/22 14:27:11;;;;;;;0.70;0.70;;;;;;;;;;5001045;28;20269;-76
2023/12/22 14:29:40;;;;;;;0.90;0.90;;;;;;;;;;5003031;28;20216;-77
2023/12/22 14:32:08;;;;;;;0.80;0.80;;;;;;;;;;5006517;28;20227;-77
2023/12/22 14:34:36;;;;;;;0.73;0.73;;;;;;;;;;5001341;28;20291;-78
2023/12/22 14:37:04;;;;;;;0.70;0.70;;;;;;;;;;5005967;28;20204;-77
2023/12/22 14:39:31;;;;;;;0.70;0.70;;;;;;;;;;5000098;28;20736;-77
2023/12/22 14:41:59;;;;;;;0.67;0.67;;;;;;;;;;5005920;28;20309;-77
2023/12/22 14:44:26;;;;;;;1.00;1.00;;;;;;;;;;4999341;28;20236;-78
2023/12/22 14:46:56;;;;;;;0.90;0.90;;;;;;;;;;5001056;28;20215;-77
2023/12/22 14:49:23;;;;;;;0.83;0.83;;;;;;;;;;5001017;28;20195;-78
2023/12/22 14:51:54;;;;;;;0.90;0.90;;;;;;;;;;4984284;28;20286;-76